createdAt,value
2022-10-26T00:00:08.759Z,99.90
2022-10-26T00:02:21.339Z,99.90
2022-10-26T00:04:26.655Z,99.90
2022-10-26T00:06:39.128Z,99.90
2022-10-26T00:08:46.206Z,99.90
2022-10-26T00:10:52.576Z,99.90
2022-10-26T00:12:58.583Z,99.90
2022-10-26T00:15:03.767Z,99.90
2022-10-26T00:17:13.729Z,99.90
2022-10-26T00:19:21.840Z,99.90
2022-10-26T00:21:26.701Z,99.90
2022-10-26T00:23:32.977Z,99.90
2022-10-26T00:25:41.760Z,99.90
2022-10-26T00:27:48.893Z,99.90
2022-10-26T00:29:53.336Z,99.90
2022-10-26T00:32:04.638Z,99.90
2022-10-26T00:34:10.935Z,99.90
2022-10-26T00:36:17.631Z,99.90
2022-10-26T00:38:29.005Z,99.90
2022-10-26T00:40:33.573Z,99.90
2022-10-26T00:42:39.008Z,99.90
2022-10-26T00:44:48.397Z,99.90
2022-10-26T00:46:54.773Z,99.90
2022-10-26T00:49:05.749Z,99.90
2022-10-26T00:51:12.763Z,99.90
2022-10-26T00:53:17.868Z,99.90
2022-10-26T00:55:25.136Z,99.90
2022-10-26T00:57:35.296Z,99.90
2022-10-26T00:59:41.361Z,99.90
2022-10-26T01:01:48.194Z,99.90
2022-10-26T01:03:53.090Z,99.90
2022-10-26T01:05:59.229Z,99.90
2022-10-26T01:08:03.606Z,99.90
2022-10-26T01:10:11.681Z,99.70
2022-10-26T01:12:27.912Z,99.50
2022-10-26T01:14:38.332Z,99.10
2022-10-26T01:16:54.429Z,99.00
2022-10-26T01:19:02.051Z,98.90
2022-10-26T01:21:24.430Z,98.30
2022-10-26T01:23:38.295Z,97.70
2022-10-26T01:25:48.963Z,97.80
2022-10-26T01:27:54.309Z,97.50
2022-10-26T01:30:04.457Z,97.00
2022-10-26T01:32:28.503Z,97.00
2022-10-26T01:34:44.242Z,96.90
2022-10-26T01:36:56.718Z,96.90
2022-10-26T01:39:10.009Z,97.00
2022-10-26T01:41:24.660Z,96.90
2022-10-26T01:43:50.853Z,97.30
2022-10-26T01:45:58.367Z,97.00
2022-10-26T01:48:07.910Z,96.80
2022-10-26T01:50:14.124Z,96.70
2022-10-26T01:52:19.483Z,96.80
2022-10-26T01:54:23.395Z,96.60
2022-10-26T01:56:30.454Z,96.60
2022-10-26T01:58:46.621Z,96.70
2022-10-26T02:01:10.801Z,96.60
2022-10-26T02:03:20.208Z,96.50
2022-10-26T02:05:35.727Z,96.60
2022-10-26T02:07:48.617Z,96.50
2022-10-26T02:10:13.926Z,96.70
2022-10-26T02:12:55.690Z,96.60
2022-10-26T02:15:09.884Z,96.50
2022-10-26T02:17:30.164Z,96.90
2022-10-26T02:20:02.589Z,96.50
2022-10-26T02:22:11.303Z,96.40
2022-10-26T02:24:35.478Z,96.40
2022-10-26T02:26:41.470Z,96.20
2022-10-26T02:28:46.579Z,96.20
2022-10-26T02:30:52.251Z,96.40
2022-10-26T02:32:57.209Z,96.40
2022-10-26T02:35:01.114Z,96.20
2022-10-26T02:37:06.167Z,95.50
2022-10-26T02:39:12.376Z,95.50
2022-10-26T02:41:16.418Z,95.70
2022-10-26T02:43:28.214Z,95.30
2022-10-26T02:45:47.884Z,95.10
2022-10-26T02:47:58.651Z,95.10
2022-10-26T02:50:05.867Z,95.10
2022-10-26T02:52:20.711Z,94.70
2022-10-26T02:54:51.491Z,94.60
2022-10-26T02:57:01.936Z,94.20
2022-10-26T02:59:14.909Z,94.20
2022-10-26T03:01:21.121Z,94.30
2022-10-26T03:03:35.666Z,94.20
2022-10-26T03:05:48.921Z,94.20
2022-10-26T03:07:56.987Z,94.20
2022-10-26T03:10:05.801Z,93.90
2022-10-26T03:12:11.304Z,93.90
2022-10-26T03:14:17.343Z,93.90
2022-10-26T03:16:26.026Z,93.80
2022-10-26T03:18:35.006Z,93.80
2022-10-26T03:20:54.519Z,93.80
2022-10-26T03:23:05.648Z,93.70
2022-10-26T03:25:11.677Z,93.20
2022-10-26T03:27:36.209Z,93.10
2022-10-26T03:29:43.384Z,92.90
2022-10-26T03:31:49.661Z,92.90
2022-10-26T03:33:54.273Z,93.10
2022-10-26T03:35:58.957Z,93.20
2022-10-26T03:38:08.827Z,92.90
2022-10-26T03:40:20.497Z,93.10
2022-10-26T03:42:30.217Z,92.80
2022-10-26T03:44:36.661Z,92.90
2022-10-26T03:46:47.265Z,92.90
2022-10-26T03:48:51.653Z,92.70
2022-10-26T03:50:59.661Z,92.60
2022-10-26T03:53:03.638Z,92.70
2022-10-26T03:55:11.996Z,92.10
2022-10-26T03:57:24.876Z,92.10
2022-10-26T03:59:31.226Z,92.00
2022-10-26T04:01:57.876Z,92.10
2022-10-26T04:04:02.302Z,91.90
2022-10-26T04:06:07.040Z,92.30
2022-10-26T04:08:13.290Z,92.20
2022-10-26T04:10:17.633Z,92.10
2022-10-26T04:12:21.453Z,92.10
2022-10-26T04:14:26.092Z,92.00
2022-10-26T04:16:33.596Z,92.10
2022-10-26T04:18:38.477Z,91.50
2022-10-26T04:20:44.229Z,91.80
2022-10-26T04:22:50.914Z,91.70
2022-10-26T04:24:55.086Z,91.70
2022-10-26T04:27:02.165Z,91.90
2022-10-26T04:29:07.850Z,91.70
2022-10-26T04:31:13.571Z,91.70
2022-10-26T04:33:17.702Z,91.50
2022-10-26T04:35:28.112Z,91.50
2022-10-26T04:37:32.343Z,91.60
2022-10-26T04:39:38.699Z,91.80
2022-10-26T04:41:43.378Z,91.80
2022-10-26T04:43:47.313Z,92.00
2022-10-26T04:45:54.895Z,91.80
2022-10-26T04:48:08.034Z,91.60
2022-10-26T04:50:15.728Z,91.30
2022-10-26T04:52:21.702Z,91.30
2022-10-26T04:54:28.171Z,91.50
2022-10-26T04:56:32.974Z,91.90
2022-10-26T04:58:39.672Z,91.80
2022-10-26T05:00:44.812Z,91.60
2022-10-26T05:02:50.403Z,91.80
2022-10-26T05:05:11.215Z,92.00
2022-10-26T05:07:18.167Z,92.20
2022-10-26T05:09:22.324Z,92.30
2022-10-26T05:11:28.909Z,92.00
2022-10-26T05:13:34.969Z,92.20
2022-10-26T05:15:39.151Z,92.00
2022-10-26T05:17:45.186Z,91.90
2022-10-26T05:19:58.232Z,91.90
2022-10-26T05:22:02.208Z,91.80
2022-10-26T05:24:10.038Z,92.00
2022-10-26T05:26:25.600Z,92.00
2022-10-26T05:28:29.396Z,91.90
2022-10-26T05:30:36.676Z,92.70
2022-10-26T05:32:41.287Z,92.90
2022-10-26T05:34:45.142Z,92.30
2022-10-26T05:36:59.705Z,92.40
2022-10-26T05:39:08.150Z,92.20
2022-10-26T05:41:17.310Z,92.10
2022-10-26T05:43:21.895Z,92.10
2022-10-26T05:45:26.365Z,91.80
2022-10-26T05:47:30.292Z,92.00
2022-10-26T05:49:34.276Z,91.50
2022-10-26T05:51:40.709Z,91.50
2022-10-26T05:53:44.586Z,91.20
2022-10-26T05:55:50.855Z,91.00
2022-10-26T05:57:57.934Z,90.90
2022-10-26T06:00:19.324Z,90.50
2022-10-26T06:02:34.465Z,90.80
2022-10-26T06:04:45.581Z,91.30
2022-10-26T06:06:54.784Z,91.40
2022-10-26T06:08:59.177Z,91.90
2022-10-26T06:11:10.950Z,92.50
2022-10-26T06:13:25.007Z,94.00
2022-10-26T06:16:01.086Z,94.80
2022-10-26T06:18:17.962Z,96.60
2022-10-26T06:20:54.797Z,96.30
2022-10-26T06:23:11.105Z,95.50
2022-10-26T06:25:15.679Z,95.20
2022-10-26T06:27:26.040Z,95.10
2022-10-26T06:29:39.473Z,95.70
2022-10-26T06:31:43.415Z,95.40
2022-10-26T06:33:47.697Z,94.80
2022-10-26T06:36:00.553Z,94.80
2022-10-26T06:38:06.247Z,94.60
2022-10-26T06:40:10.316Z,94.70
2022-10-26T06:42:34.089Z,94.90
2022-10-26T06:44:48.119Z,94.50
2022-10-26T06:46:58.496Z,93.90
2022-10-26T06:49:21.954Z,94.30
2022-10-26T06:51:28.134Z,94.00
2022-10-26T06:53:34.453Z,94.00
2022-10-26T06:55:41.766Z,94.10
2022-10-26T06:57:45.834Z,94.00
2022-10-26T07:00:20.751Z,93.70
2022-10-26T07:02:25.565Z,93.60
2022-10-26T07:04:31.686Z,93.20
2022-10-26T07:06:38.417Z,93.30
2022-10-26T07:08:44.142Z,93.50
2022-10-26T07:10:48.462Z,93.40
2022-10-26T07:12:52.370Z,93.50
2022-10-26T07:14:56.898Z,93.30
2022-10-26T07:17:01.036Z,93.30
2022-10-26T07:19:07.904Z,93.70
2022-10-26T07:21:11.978Z,93.50
2022-10-26T07:23:17.082Z,93.50
2022-10-26T07:25:22.609Z,93.40
2022-10-26T07:27:26.907Z,93.40
2022-10-26T07:29:32.852Z,92.90
2022-10-26T07:31:39.254Z,92.70
2022-10-26T07:33:43.905Z,93.00
2022-10-26T07:35:48.938Z,92.80
2022-10-26T07:37:53.008Z,92.60
2022-10-26T07:39:57.222Z,92.40
2022-10-26T07:42:01.135Z,91.70
2022-10-26T07:44:05.702Z,91.70
2022-10-26T07:46:18.292Z,92.30
2022-10-26T07:48:35.833Z,92.40
2022-10-26T07:50:40.373Z,92.50
2022-10-26T07:52:44.357Z,92.90
2022-10-26T07:54:50.966Z,93.70
2022-10-26T07:56:54.971Z,94.70
2022-10-26T07:58:59.254Z,95.40
2022-10-26T08:01:10.688Z,95.70
2022-10-26T08:03:15.274Z,97.00
2022-10-26T08:05:19.391Z,96.80
2022-10-26T08:07:25.399Z,97.10
2022-10-26T08:09:29.704Z,97.20
2022-10-26T08:11:33.692Z,97.30
2022-10-26T08:13:37.836Z,97.70
2022-10-26T08:15:42.560Z,97.90
2022-10-26T08:17:46.629Z,98.30
2022-10-26T08:19:51.273Z,98.00
2022-10-26T08:21:57.663Z,98.20
2022-10-26T08:24:02.359Z,98.60
2022-10-26T08:26:06.795Z,98.50
2022-10-26T08:28:11.193Z,98.40
2022-10-26T08:30:15.905Z,98.60
2022-10-26T08:32:20.098Z,98.70
2022-10-26T08:34:27.020Z,98.60
2022-10-26T08:36:40.891Z,97.80
2022-10-26T08:38:53.941Z,98.00
2022-10-26T08:41:10.363Z,96.90
2022-10-26T08:43:25.495Z,96.30
2022-10-26T08:45:36.474Z,96.20
2022-10-26T08:47:47.476Z,96.10
2022-10-26T08:50:03.592Z,95.10
2022-10-26T08:52:15.398Z,95.10
2022-10-26T08:54:33.064Z,95.70
2022-10-26T08:56:39.230Z,96.20
2022-10-26T08:58:53.194Z,96.30
2022-10-26T09:00:57.645Z,96.50
2022-10-26T09:03:02.696Z,97.10
2022-10-26T09:05:08.062Z,97.30
2022-10-26T09:07:27.399Z,97.40
2022-10-26T09:09:47.693Z,97.70
2022-10-26T09:12:05.620Z,98.60
2022-10-26T09:14:12.276Z,99.90
2022-10-26T09:16:31.667Z,99.90
2022-10-26T09:19:04.521Z,99.90
2022-10-26T09:21:17.309Z,99.90
2022-10-26T09:23:42.154Z,99.90
2022-10-26T09:26:04.390Z,99.90
2022-10-26T09:28:17.703Z,99.90
2022-10-26T09:30:27.120Z,99.90
2022-10-26T09:32:32.876Z,99.90
2022-10-26T09:34:42.794Z,99.90
2022-10-26T09:36:47.056Z,99.90
2022-10-26T09:39:12.450Z,99.90
2022-10-26T09:41:22.898Z,99.90
2022-10-26T09:43:30.973Z,99.90
2022-10-26T09:45:36.140Z,99.90
2022-10-26T09:47:42.182Z,99.90
2022-10-26T09:49:49.574Z,99.90
2022-10-26T09:51:55.689Z,99.90
2022-10-26T09:54:03.647Z,99.90
2022-10-26T09:56:14.259Z,99.90
2022-10-26T09:58:25.687Z,99.90
2022-10-26T10:00:29.845Z,99.90
2022-10-26T10:02:37.222Z,99.90
2022-10-26T10:04:41.449Z,99.90
2022-10-26T10:06:48.431Z,99.90
2022-10-26T10:09:11.932Z,99.90
2022-10-26T10:11:16.375Z,99.90
2022-10-26T10:13:22.520Z,99.90
2022-10-26T10:15:27.080Z,99.90
2022-10-26T10:17:35.764Z,99.90
2022-10-26T10:19:42.258Z,99.90
2022-10-26T10:21:46.632Z,99.90
2022-10-26T10:23:53.228Z,99.90
2022-10-26T10:26:01.090Z,99.90
2022-10-26T10:28:26.398Z,99.90
2022-10-26T10:30:34.436Z,99.90
2022-10-26T10:32:45.984Z,99.90
2022-10-26T10:34:53.213Z,99.90
2022-10-26T10:36:58.780Z,99.90
2022-10-26T10:39:03.140Z,99.90
2022-10-26T10:41:06.966Z,99.90
2022-10-26T10:43:15.526Z,99.90
2022-10-26T10:45:29.529Z,99.90
2022-10-26T10:47:34.171Z,99.90
2022-10-26T10:49:39.521Z,99.90
2022-10-26T10:51:53.682Z,99.90
2022-10-26T10:54:04.055Z,99.90
2022-10-26T10:56:28.172Z,99.90
2022-10-26T10:58:34.658Z,99.90
2022-10-26T11:00:41.038Z,99.90
2022-10-26T11:03:03.606Z,99.90
2022-10-26T11:05:33.987Z,99.90
2022-10-26T11:07:44.769Z,99.90
2022-10-26T11:09:48.846Z,99.90
2022-10-26T11:11:56.914Z,99.90
2022-10-26T11:14:05.298Z,99.90
2022-10-26T11:16:13.363Z,99.90
2022-10-26T11:18:17.369Z,99.90
2022-10-26T11:20:22.372Z,99.90
2022-10-26T11:22:28.104Z,99.90
2022-10-26T11:24:37.501Z,99.90
2022-10-26T11:26:46.933Z,99.90
2022-10-26T11:29:03.348Z,99.90
2022-10-26T11:31:09.263Z,99.90
2022-10-26T11:33:33.243Z,99.90
2022-10-26T11:35:40.490Z,99.90
2022-10-26T11:37:46.757Z,99.90
2022-10-26T11:40:11.093Z,99.90
2022-10-26T11:42:22.785Z,99.90
2022-10-26T11:45:05.476Z,99.90
2022-10-26T11:47:12.452Z,99.90
2022-10-26T11:49:23.041Z,99.90
2022-10-26T11:51:45.010Z,99.90
2022-10-26T11:53:49.001Z,99.90
2022-10-26T11:55:56.128Z,99.90
2022-10-26T11:58:00.132Z,99.90
2022-10-26T12:00:08.428Z,99.90
2022-10-26T12:02:17.598Z,99.90
2022-10-26T12:04:29.534Z,99.90
2022-10-26T12:06:35.650Z,99.90
2022-10-26T12:08:44.646Z,99.90
2022-10-26T12:10:50.623Z,99.90
2022-10-26T12:13:13.558Z,99.90
2022-10-26T12:15:35.155Z,99.90
2022-10-26T12:17:54.836Z,99.90
2022-10-26T12:20:09.251Z,99.90
2022-10-26T12:22:15.755Z,99.90
2022-10-26T12:24:25.582Z,99.90
2022-10-26T12:26:29.687Z,99.90
2022-10-26T12:28:34.231Z,99.90
2022-10-26T12:30:38.496Z,99.90
2022-10-26T12:32:43.835Z,99.90
2022-10-26T12:34:51.457Z,99.90
2022-10-26T12:36:58.057Z,99.90
2022-10-26T12:39:03.069Z,99.90
2022-10-26T12:41:13.901Z,99.90
2022-10-26T12:43:18.155Z,99.90
2022-10-26T12:45:22.295Z,99.90
2022-10-26T12:47:33.402Z,99.90
2022-10-26T12:50:16.622Z,99.90
2022-10-26T12:52:28.846Z,99.90
2022-10-26T12:54:36.611Z,99.90
2022-10-26T12:56:47.346Z,99.90
2022-10-26T12:58:54.218Z,99.90
2022-10-26T13:01:04.569Z,99.90
2022-10-26T13:03:27.245Z,99.90
2022-10-26T13:05:46.067Z,99.90
2022-10-26T13:08:04.422Z,99.90
2022-10-26T13:10:13.681Z,99.90
2022-10-26T13:12:17.461Z,99.90
2022-10-26T13:14:29.132Z,99.90
2022-10-26T13:16:33.968Z,99.90
2022-10-26T13:18:42.804Z,99.90
2022-10-26T13:20:54.803Z,99.90
2022-10-26T13:22:58.748Z,99.90
2022-10-26T13:25:03.241Z,99.90
2022-10-26T13:27:12.054Z,99.90
2022-10-26T13:29:15.961Z,99.90
2022-10-26T13:31:32.308Z,99.90
2022-10-26T13:33:41.720Z,99.90
2022-10-26T13:35:46.180Z,99.90
2022-10-26T13:37:51.607Z,99.90
2022-10-26T13:39:57.016Z,99.90
2022-10-26T13:42:01.342Z,99.90
2022-10-26T13:44:06.769Z,99.90
2022-10-26T13:46:17.324Z,99.90
2022-10-26T13:48:25.494Z,99.90
2022-10-26T13:50:33.408Z,99.90
2022-10-26T13:52:38.083Z,99.90
2022-10-26T13:54:57.933Z,99.90
2022-10-26T13:57:05.061Z,99.90
2022-10-26T13:59:14.552Z,99.90
2022-10-26T14:01:19.335Z,99.90
2022-10-26T14:03:23.293Z,99.90
2022-10-26T14:05:29.272Z,99.90
2022-10-26T14:07:38.596Z,99.90
2022-10-26T14:09:44.085Z,99.90
2022-10-26T14:12:03.035Z,99.90
2022-10-26T14:14:08.203Z,99.90
2022-10-26T14:16:18.268Z,99.90
2022-10-26T14:18:27.260Z,99.90
2022-10-26T14:20:31.978Z,99.90
2022-10-26T14:22:35.994Z,99.90
2022-10-26T14:24:47.974Z,99.90
2022-10-26T14:26:51.971Z,99.90
2022-10-26T14:28:57.324Z,99.90
2022-10-26T14:31:20.296Z,99.90
2022-10-26T14:33:30.623Z,99.90
2022-10-26T14:35:37.128Z,99.90
2022-10-26T14:37:47.573Z,99.90
2022-10-26T14:39:51.824Z,99.90
2022-10-26T14:41:55.909Z,99.90
2022-10-26T14:44:05.315Z,99.90
2022-10-26T14:46:13.526Z,99.90
2022-10-26T14:48:37.884Z,99.90
2022-10-26T14:50:42.718Z,99.90
2022-10-26T14:52:54.384Z,99.90
2022-10-26T14:55:17.205Z,99.90
2022-10-26T14:57:36.639Z,99.90
2022-10-26T15:00:00.853Z,99.90
2022-10-26T15:02:17.183Z,99.90
2022-10-26T15:04:28.178Z,99.90
2022-10-26T15:06:43.698Z,99.90
2022-10-26T15:08:56.844Z,99.90
2022-10-26T15:11:10.140Z,99.90
2022-10-26T15:13:30.437Z,99.90
2022-10-26T15:15:37.472Z,99.90
2022-10-26T15:17:55.429Z,99.90
2022-10-26T15:20:03.772Z,99.90
2022-10-26T15:22:16.928Z,99.90
2022-10-26T15:24:30.991Z,99.90
2022-10-26T15:26:37.153Z,99.90
2022-10-26T15:28:44.196Z,99.90
2022-10-26T15:31:06.756Z,99.90
2022-10-26T15:33:21.222Z,99.90
2022-10-26T15:35:26.911Z,99.90
2022-10-26T15:37:31.799Z,99.90
2022-10-26T15:39:38.297Z,99.90
2022-10-26T15:41:46.726Z,99.90
2022-10-26T15:43:53.712Z,99.90
2022-10-26T15:45:59.613Z,99.90
2022-10-26T15:48:17.083Z,99.90
2022-10-26T15:50:28.992Z,99.90
2022-10-26T15:52:34.913Z,99.90
2022-10-26T15:54:39.716Z,99.90
2022-10-26T15:56:45.779Z,99.90
2022-10-26T15:58:51.713Z,99.90
2022-10-26T16:00:56.106Z,99.90
2022-10-26T16:03:02.423Z,99.90
2022-10-26T16:05:06.493Z,99.90
2022-10-26T16:07:16.760Z,99.90
2022-10-26T16:09:20.785Z,99.90
2022-10-26T16:11:26.882Z,99.90
2022-10-26T16:13:31.661Z,99.90
2022-10-26T16:15:39.517Z,99.90
2022-10-26T16:17:49.526Z,99.90
2022-10-26T16:19:57.491Z,99.90
2022-10-26T16:22:07.141Z,99.90
2022-10-26T16:24:29.021Z,99.90
2022-10-26T16:26:36.510Z,99.90
2022-10-26T16:28:45.712Z,99.90
2022-10-26T16:30:51.845Z,99.90
2022-10-26T16:32:55.933Z,99.90
2022-10-26T16:35:02.238Z,99.90
2022-10-26T16:37:06.461Z,99.90
2022-10-26T16:39:11.694Z,99.90
2022-10-26T16:41:17.351Z,99.90
2022-10-26T16:43:23.556Z,99.90
2022-10-26T16:45:27.907Z,99.90
2022-10-26T16:47:38.327Z,99.90
2022-10-26T16:49:45.595Z,99.90
2022-10-26T16:51:51.680Z,99.90
2022-10-26T16:53:59.112Z,99.90
2022-10-26T16:56:06.797Z,99.90
2022-10-26T16:58:10.875Z,99.90
2022-10-26T17:00:16.920Z,99.90
2022-10-26T17:02:24.584Z,99.90
2022-10-26T17:04:31.266Z,99.90
2022-10-26T17:06:37.628Z,99.90
2022-10-26T17:08:43.666Z,99.90
2022-10-26T17:10:48.714Z,99.90
2022-10-26T17:12:55.152Z,99.90
2022-10-26T17:15:01.509Z,99.90
2022-10-26T17:17:06.031Z,99.90
2022-10-26T17:19:14.004Z,99.90
2022-10-26T17:21:20.343Z,99.90
2022-10-26T17:23:24.253Z,99.90
2022-10-26T17:25:28.184Z,99.90
2022-10-26T17:27:34.368Z,99.90
2022-10-26T17:29:38.276Z,99.90
2022-10-26T17:31:46.349Z,99.90
2022-10-26T17:33:52.421Z,99.90
2022-10-26T17:35:56.123Z,99.90
2022-10-26T17:38:02.713Z,99.90
2022-10-26T17:40:08.998Z,99.90
2022-10-26T17:42:12.976Z,99.90
2022-10-26T17:44:18.907Z,99.90
2022-10-26T17:46:25.407Z,99.90
2022-10-26T17:48:29.518Z,99.90
2022-10-26T17:50:35.864Z,99.90
2022-10-26T17:52:43.960Z,99.90
2022-10-26T17:54:48.037Z,99.90
2022-10-26T17:56:51.845Z,99.90
2022-10-26T17:58:59.973Z,99.90
2022-10-26T18:01:04.463Z,99.90
2022-10-26T18:03:12.522Z,99.90
2022-10-26T18:05:21.002Z,99.90
2022-10-26T18:07:26.500Z,99.90
2022-10-26T18:09:37.157Z,99.90
2022-10-26T18:11:43.656Z,99.90
2022-10-26T18:13:49.517Z,99.90
2022-10-26T18:15:53.562Z,99.90
2022-10-26T18:18:02.228Z,99.90
2022-10-26T18:20:07.013Z,99.90
2022-10-26T18:22:14.367Z,99.90
2022-10-26T18:24:20.239Z,99.90
2022-10-26T18:26:27.150Z,99.90
2022-10-26T18:28:35.114Z,99.90
2022-10-26T18:31:04.142Z,99.90
2022-10-26T18:33:08.214Z,99.90
2022-10-26T18:35:34.856Z,99.90
2022-10-26T18:37:46.971Z,99.90
2022-10-26T18:39:50.933Z,99.90
2022-10-26T18:42:00.916Z,99.90
2022-10-26T18:44:05.381Z,99.90
2022-10-26T18:46:10.933Z,99.90
2022-10-26T18:48:19.790Z,99.90
2022-10-26T18:50:27.009Z,99.90
2022-10-26T18:52:33.395Z,99.90
2022-10-26T18:54:46.191Z,99.90
2022-10-26T18:56:51.523Z,99.90
2022-10-26T18:58:58.029Z,99.90
2022-10-26T19:01:11.058Z,99.90
2022-10-26T19:03:18.837Z,99.90
2022-10-26T19:05:24.701Z,99.90
2022-10-26T19:07:33.329Z,99.90
2022-10-26T19:09:37.515Z,99.90
2022-10-26T19:11:44.229Z,99.90
2022-10-26T19:13:48.638Z,99.90
2022-10-26T19:16:00.497Z,99.90
2022-10-26T19:18:04.402Z,99.90
2022-10-26T19:20:15.921Z,99.90
2022-10-26T19:22:20.222Z,99.90
2022-10-26T19:24:24.668Z,99.90
2022-10-26T19:26:41.112Z,99.90
2022-10-26T19:28:50.175Z,99.90
2022-10-26T19:30:55.659Z,99.90
2022-10-26T19:33:04.127Z,99.90
2022-10-26T19:35:11.318Z,99.90
2022-10-26T19:37:18.230Z,99.90
2022-10-26T19:39:32.952Z,99.90
2022-10-26T19:41:48.159Z,99.90
2022-10-26T19:43:54.299Z,99.90
2022-10-26T19:45:59.191Z,99.90
2022-10-26T19:48:05.219Z,99.90
2022-10-26T19:50:13.523Z,99.90
2022-10-26T19:52:22.354Z,99.90
2022-10-26T19:54:34.537Z,99.90
2022-10-26T19:56:42.242Z,99.90
2022-10-26T19:58:49.115Z,99.90
2022-10-26T20:01:04.066Z,99.90
2022-10-26T20:03:17.336Z,99.90
2022-10-26T20:05:26.272Z,99.90
2022-10-26T20:07:32.468Z,99.90
2022-10-26T20:09:38.356Z,99.90
2022-10-26T20:11:46.132Z,99.90
2022-10-26T20:13:50.621Z,99.90
2022-10-26T20:15:55.610Z,99.90
2022-10-26T20:18:03.465Z,99.90
2022-10-26T20:20:22.067Z,99.90
2022-10-26T20:22:28.343Z,99.90
2022-10-26T20:24:37.464Z,99.90
2022-10-26T20:26:56.716Z,99.90
2022-10-26T20:29:01.249Z,99.90
2022-10-26T20:31:19.666Z,99.90
2022-10-26T20:33:26.176Z,99.90
2022-10-26T20:35:31.909Z,99.90
2022-10-26T20:37:40.403Z,99.90
2022-10-26T20:39:53.300Z,99.90
2022-10-26T20:41:58.154Z,99.90
2022-10-26T20:44:04.856Z,99.90
2022-10-26T20:46:12.809Z,99.90
2022-10-26T20:48:18.284Z,99.90
2022-10-26T20:50:23.768Z,99.90
2022-10-26T20:52:36.872Z,99.90
2022-10-26T20:54:43.096Z,99.90
2022-10-26T20:56:51.494Z,99.90
2022-10-26T20:59:02.072Z,99.90
2022-10-26T21:01:39.478Z,99.90
2022-10-26T21:03:47.699Z,99.90
2022-10-26T21:05:55.563Z,99.90
2022-10-26T21:08:02.506Z,99.90
2022-10-26T21:10:10.955Z,99.90
2022-10-26T21:12:16.390Z,99.90
2022-10-26T21:14:21.512Z,99.90
2022-10-26T21:16:28.200Z,99.90
2022-10-26T21:18:33.200Z,99.90
2022-10-26T21:20:38.755Z,99.90
2022-10-26T21:22:58.353Z,99.90
2022-10-26T21:25:02.492Z,99.90
2022-10-26T21:27:07.729Z,99.90
2022-10-26T21:29:14.990Z,99.90
2022-10-26T21:31:22.789Z,99.90
2022-10-26T21:33:33.006Z,99.90
2022-10-26T21:35:39.196Z,99.90
2022-10-26T21:37:43.490Z,99.90
2022-10-26T21:39:47.570Z,99.90
2022-10-26T21:41:56.548Z,99.90
2022-10-26T21:44:09.627Z,99.90
2022-10-26T21:46:20.324Z,99.90
2022-10-26T21:48:27.904Z,99.90
2022-10-26T21:50:31.947Z,99.90
2022-10-26T21:52:39.096Z,99.90
2022-10-26T21:54:45.509Z,99.90
2022-10-26T21:56:54.467Z,99.90
2022-10-26T21:58:59.662Z,99.90
2022-10-26T22:01:07.897Z,99.90
2022-10-26T22:03:12.734Z,99.90
2022-10-26T22:05:17.406Z,99.90
2022-10-26T22:07:25.202Z,99.90
2022-10-26T22:09:40.537Z,99.90
2022-10-26T22:11:55.675Z,99.90
2022-10-26T22:13:59.759Z,99.90
2022-10-26T22:16:13.211Z,99.90
2022-10-26T22:18:17.929Z,99.90
2022-10-26T22:20:24.979Z,99.90
2022-10-26T22:22:30.746Z,99.90
2022-10-26T22:24:35.111Z,99.90
2022-10-26T22:26:41.332Z,99.90
2022-10-26T22:28:47.964Z,99.90
2022-10-26T22:30:52.149Z,99.90
2022-10-26T22:32:59.048Z,99.90
2022-10-26T22:35:11.173Z,99.90
2022-10-26T22:37:28.494Z,99.90
2022-10-26T22:39:34.957Z,99.90
2022-10-26T22:41:41.609Z,99.90
2022-10-26T22:43:47.664Z,99.90
2022-10-26T22:46:20.941Z,99.90
2022-10-26T22:48:28.256Z,99.90
2022-10-26T22:50:32.664Z,99.90
2022-10-26T22:52:40.790Z,99.90
2022-10-26T22:54:45.779Z,99.90
2022-10-26T22:56:52.137Z,99.90
2022-10-26T22:59:02.228Z,99.90
2022-10-26T23:01:25.559Z,99.90
2022-10-26T23:03:29.693Z,99.90
2022-10-26T23:05:34.295Z,99.90
2022-10-26T23:07:42.892Z,99.90
2022-10-26T23:09:59.003Z,99.90
2022-10-26T23:12:15.608Z,99.90
2022-10-26T23:14:40.007Z,99.90
2022-10-26T23:16:49.207Z,99.90
2022-10-26T23:18:58.065Z,99.90
2022-10-26T23:21:07.659Z,99.90
2022-10-26T23:23:16.739Z,99.90
2022-10-26T23:25:23.270Z,99.90
2022-10-26T23:27:30.452Z,99.90
2022-10-26T23:29:34.750Z,99.90
2022-10-26T23:31:40.667Z,99.90
2022-10-26T23:33:45.362Z,99.90
2022-10-26T23:35:51.092Z,99.90
2022-10-26T23:38:02.994Z,99.90
2022-10-26T23:40:07.395Z,99.90
2022-10-26T23:42:13.655Z,99.90
2022-10-26T23:44:22.414Z,99.90
2022-10-26T23:46:28.105Z,99.90
2022-10-26T23:48:35.507Z,99.90
2022-10-26T23:50:47.492Z,99.90
2022-10-26T23:52:51.935Z,99.90
2022-10-26T23:54:57.111Z,99.90
2022-10-26T23:57:03.693Z,99.90
2022-10-26T23:59:12.011Z,99.90
